Time;durP1;ratioP1;P1;durP2;ratioP2;P2;SDS_P1;SDS_P2;PMS_P1;PMS_P2;Temp;Humidity;BMP_temperature;BMP_pressure;BME280_temperature;BME280_humidity;BME280_pressure;Samples;Min_cycle;Max_cycle;Signal;HPM_P1;HPM_P2
2021/10/22 19:52:22;;;;;;;11.75;1.48;;;;;;;;;;1021497;27;20599;-73
2021/10/22 19:52:53;;;;;;;11.30;1.80;;;;;;;;;;1038551;28;20468;-75
2021/10/22 19:53:27;;;;;;;9.88;3.42;;;;;;;;;;1038613;28;20018;-74
2021/10/22 19:53:58;;;;;;;15.68;2.60;;;;;;;;;;1038906;28;20103;-74
2021/10/22 19:54:34;;;;;;;8.00;1.58;;;;;;;;;;1038698;28;20022;-74
2021/10/22 19:55:06;;;;;;;22.65;4.57;;;;;;;;;;1038299;28;20010;-72
2021/10/22 19:55:39;;;;;;;21.45;2.95;;;;;;;;;;959831;28;20053;-71
2021/10/22 19:56:18;;;;;;;50.80;3.50;;;;;;;;;;1040599;28;20020;-74
2021/10/22 19:56:49;;;;;;;12.57;1.98;;;;;;;;;;1036088;28;20014;-74
2021/10/22 19:57:20;;;;;;;6.93;2.40;;;;;;;;;;1020131;28;20029;-72
2021/10/22 19:57:51;;;;;;;9.38;1.73;;;;;;;;;;1038502;28;20020;-71
2021/10/22 19:58:22;;;;;;;18.85;3.15;;;;;;;;;;1039426;28;20052;-76
2021/10/22 19:58:53;;;;;;;13.15;1.65;;;;;;;;;;1042759;28;20068;-74
2021/10/22 19:59:24;;;;;;;14.35;3.20;;;;;;;;;;1043398;28;21433;-75
2021/10/22 19:59:56;;;;;;;11.60;2.17;;;;;;;;;;1013529;28;20013;-79
2021/10/22 20:00:27;;;;;;;11.85;1.90;;;;;;;;;;992537;28;91950;-78
2021/10/22 20:00:58;;;;;;;14.15;1.92;;;;;;;;;;1040823;28;20030;-78
2021/10/22 20:01:29;;;;;;;10.80;2.33;;;;;;;;;;1039923;28;20030;-79
2021/10/22 20:02:00;;;;;;;10.98;2.78;;;;;;;;;;1040149;28;20566;-78
2021/10/22 20:02:31;;;;;;;8.15;1.85;;;;;;;;;;1004956;28;20014;-74
2021/10/22 20:03:02;;;;;;;7.55;1.45;;;;;;;;;;1032091;28;20037;-80
2021/10/22 20:03:34;;;;;;;7.15;1.80;;;;;;;;;;1040685;28;20029;-80
2021/10/22 20:04:05;;;;;;;8.25;1.25;;;;;;;;;;1007433;28;20021;-81
2021/10/22 20:04:38;;;;;;;20.95;2.80;;;;;;;;;;1032588;28;20049;-87
2021/10/22 20:05:09;;;;;;;12.80;1.63;;;;;;;;;;1016097;28;20037;-79
2021/10/22 20:05:40;;;;;;;9.82;2.97;;;;;;;;;;1035843;28;20034;-76
2021/10/22 20:06:12;;;;;;;10.60;1.90;;;;;;;;;;1021053;28;20064;-79
2021/10/22 20:06:58;;;;;;;8.38;1.45;;;;;;;;;;1037664;27;20652;-81
2021/10/22 20:07:29;;;;;;;7.65;1.85;;;;;;;;;;1044178;28;20521;-76
2021/10/22 20:08:00;;;;;;;15.55;2.20;;;;;;;;;;1049370;28;20024;-77
2021/10/22 20:08:32;;;;;;;10.98;2.83;;;24.70;48.60;;;;;;1022984;28;20130;-80
2021/10/22 20:09:03;;;;;;;9.02;1.20;;;24.70;48.10;;;;;;1019703;28;20028;-74
2021/10/22 20:09:33;;;;;;;8.45;2.53;;;24.40;47.90;;;;;;1050549;28;20035;-72
2021/10/22 20:10:06;;;;;;;9.73;2.40;;;23.90;49.10;;;;;;1051041;28;20086;-69
2021/10/22 20:10:37;;;;;;;10.05;2.17;;;23.50;49.80;;;;;;1050796;28;20032;-69
2021/10/22 20:11:08;;;;;;;10.07;2.45;;;23.20;50.20;;;;;;1054587;28;20078;-68
2021/10/22 20:11:39;;;;;;;7.30;1.33;;;22.90;51.60;;;;;;1055194;28;20027;-69
2021/10/22 20:12:12;;;;;;;10.48;1.65;;;22.60;51.70;;;;;;1054858;28;20450;-69
2021/10/22 20:12:43;;;;;;;6.70;1.30;;;22.40;52.30;;;;;;1050985;28;20021;-69
2021/10/22 20:13:13;;;;;;;12.20;2.05;;;22.20;52.80;;;;;;1050551;28;20112;-68
2021/10/22 20:13:46;;;;;;;8.00;1.50;;;22.00;53.20;;;;;;1051212;28;20020;-68
2021/10/22 20:14:19;;;;;;;9.95;1.70;;;21.80;53.60;;;;;;1051417;28;20025;-69
2021/10/22 20:14:50;;;;;;;14.38;2.85;;;21.70;54.30;;;;;;1051402;28;20055;-69
2021/10/22 20:15:21;;;;;;;7.07;1.70;;;21.60;54.30;;;;;;1051740;28;20398;-69
2021/10/22 20:15:54;;;;;;;4.47;1.55;;;21.50;54.40;;;;;;1047112;28;20051;-69
2021/10/22 20:16:26;;;;;;;14.65;1.80;;;21.40;54.70;;;;;;1046722;28;20491;-70
2021/10/22 20:16:56;;;;;;;7.80;1.40;;;21.30;54.80;;;;;;1047500;28;20408;-69
2021/10/22 20:17:27;;;;;;;10.05;1.90;;;21.30;54.90;;;;;;1047459;28;20024;-69
2021/10/22 20:17:57;;;;;;;7.40;1.98;;;21.20;55.00;;;;;;1051495;28;20050;-69
2021/10/22 20:18:28;;;;;;;4.35;1.20;;;21.20;55.40;;;;;;1051158;28;20021;-69
2021/10/22 20:18:59;;;;;;;13.10;2.72;;;21.10;55.50;;;;;;1051346;28;20104;-69
2021/10/22 20:19:30;;;;;;;6.68;1.20;;;21.10;55.60;;;;;;1050990;28;20043;-69
2021/10/22 20:20:00;;;;;;;10.88;1.95;;;21.00;55.70;;;;;;1052472;28;20084;-69
2021/10/22 20:20:31;;;;;;;9.98;1.90;;;21.00;55.90;;;;;;1052354;28;20079;-69
2021/10/22 20:21:03;;;;;;;11.45;2.17;;;21.00;55.60;;;;;;1052120;28;20043;-69
2021/10/22 20:21:33;;;;;;;6.72;1.50;;;21.00;55.80;;;;;;1052377;28;20020;-69
2021/10/22 20:22:05;;;;;;;5.85;1.67;;;21.00;55.80;;;;;;1052194;28;20174;-69
2021/10/22 20:22:36;;;;;;;5.72;1.77;;;21.00;55.90;;;;;;1051825;28;20025;-69
2021/10/22 20:23:06;;;;;;;3.70;0.98;;;21.00;55.90;;;;;;1052204;28;20695;-70
2021/10/22 20:23:38;;;;;;;7.45;2.25;;;21.00;56.00;;;;;;1052178;28;20115;-69
2021/10/22 20:24:09;;;;;;;14.25;4.13;;;20.90;55.90;;;;;;1047930;28;20067;-69
2021/10/22 20:24:40;;;;;;;6.03;1.85;;;20.90;56.00;;;;;;1048324;28;20733;-68
2021/10/22 20:25:11;;;;;;;4.05;1.48;;;20.90;55.90;;;;;;1047682;28;20013;-68
2021/10/22 20:25:41;;;;;;;8.30;1.60;;;20.80;56.00;;;;;;1048036;28;20502;-70
2021/10/22 20:26:13;;;;;;;7.93;1.55;;;20.80;56.10;;;;;;1051582;28;20016;-70
2021/10/22 20:26:43;;;;;;;8.65;1.58;;;20.80;56.00;;;;;;1051504;28;20081;-70
2021/10/22 20:27:14;;;;;;;6.88;1.38;;;20.80;56.30;;;;;;1051845;28;20078;-69
2021/10/22 20:27:45;;;;;;;7.18;1.60;;;20.80;56.30;;;;;;1047682;28;20041;-68
2021/10/22 20:28:15;;;;;;;8.23;1.70;;;20.80;56.40;;;;;;1048088;28;20094;-68
2021/10/22 20:28:47;;;;;;;10.27;1.67;;;20.70;56.30;;;;;;1047439;28;20040;-68
2021/10/22 20:29:19;;;;;;;6.07;1.33;;;20.70;56.40;;;;;;1047956;28;20087;-69
2021/10/22 20:29:50;;;;;;;10.10;1.77;;;20.70;56.50;;;;;;1051905;28;20016;-69
2021/10/22 20:30:21;;;;;;;5.75;1.35;;;20.70;56.50;;;;;;1048259;28;20033;-69
2021/10/22 20:30:51;;;;;;;9.90;1.35;;;20.70;57.00;;;;;;1048017;28;20051;-69
2021/10/22 20:31:22;;;;;;;7.43;1.52;;;20.70;56.50;;;;;;1048254;28;20013;-69
2021/10/22 20:31:53;;;;;;;7.43;1.85;;;20.70;56.60;;;;;;1048044;28;20017;-69
2021/10/22 20:32:24;;;;;;;7.00;2.40;;;20.70;56.50;;;;;;1048596;28;20478;-70
2021/10/22 20:32:56;;;;;;;8.30;2.05;;;20.70;56.50;;;;;;1048854;28;20028;-68
2021/10/22 20:33:27;;;;;;;6.05;1.30;;;20.60;56.50;;;;;;1048779;28;20476;-69
2021/10/22 20:33:58;;;;;;;6.03;1.88;;;20.60;56.60;;;;;;1048817;28;20017;-68
2021/10/22 20:34:30;;;;;;;9.23;1.60;;;20.60;56.70;;;;;;1047683;28;20036;-69
2021/10/22 20:35:01;;;;;;;8.45;1.50;;;20.60;56.70;;;;;;1048640;28;20017;-69
2021/10/22 20:35:32;;;;;;;6.45;1.90;;;20.60;56.70;;;;;;1048339;28;20486;-69
2021/10/22 20:36:03;;;;;;;9.60;2.10;;;20.50;56.80;;;;;;1048290;28;20315;-69
2021/10/22 20:36:34;;;;;;;9.40;1.90;;;20.60;56.80;;;;;;1048607;28;20025;-69
2021/10/22 20:37:05;;;;;;;6.47;1.60;;;20.50;56.80;;;;;;1048821;28;20025;-68
2021/10/22 20:37:36;;;;;;;8.75;2.38;;;20.50;56.90;;;;;;1048790;28;20029;-69
2021/10/22 20:38:07;;;;;;;7.28;1.73;;;20.50;56.80;;;;;;1048600;28;20017;-68
2021/10/22 20:38:37;;;;;;;5.68;2.17;;;20.50;56.80;;;;;;1048876;28;20021;-70
2021/10/22 20:39:08;;;;;;;12.73;1.83;;;20.50;56.80;;;;;;1048635;28;20099;-68
2021/10/22 20:39:39;;;;;;;6.65;2.03;;;20.50;56.90;;;;;;1048152;28;20072;-70
2021/10/22 20:40:13;;;;;;;8.25;1.70;;;20.50;56.90;;;;;;1048682;28;20108;-69
2021/10/22 20:40:45;;;;;;;5.75;2.30;;;20.40;57.00;;;;;;1048839;28;20020;-70
2021/10/22 20:41:15;;;;;;;8.43;1.58;;;20.40;57.00;;;;;;1049027;28;20021;-69
2021/10/22 20:41:46;;;;;;;5.82;2.08;;;20.40;56.90;;;;;;1048887;28;20061;-69
2021/10/22 20:42:17;;;;;;;3.28;1.67;;;20.40;56.90;;;;;;1048690;28;20017;-70
2021/10/22 20:42:48;;;;;;;7.18;1.48;;;20.40;57.00;;;;;;1047712;28;20490;-71
2021/10/22 20:43:18;;;;;;;7.00;1.13;;;20.40;57.00;;;;;;1044480;28;20061;-70
2021/10/22 20:43:49;;;;;;;7.18;1.67;;;20.40;56.90;;;;;;1044369;28;20021;-70
2021/10/22 20:44:20;;;;;;;5.38;1.60;;;20.40;56.90;;;;;;1043917;28;20045;-70
2021/10/22 20:44:51;;;;;;;8.57;1.73;;;20.40;56.90;;;;;;1048343;28;20027;-70
2021/10/22 20:45:22;;;;;;;9.68;2.70;;;20.40;57.00;;;;;;1045391;28;20069;-70
2021/10/22 20:45:52;;;;;;;8.10;2.22;;;20.40;57.00;;;;;;1049092;28;20012;-70
2021/10/22 20:46:24;;;;;;;6.93;1.83;;;20.40;57.10;;;;;;1048243;28;20045;-70
2021/10/22 20:46:56;;;;;;;6.03;1.70;;;20.40;57.20;;;;;;1048022;28;20013;-70
2021/10/22 20:47:28;;;;;;;4.60;1.20;;;20.30;57.00;;;;;;1048542;28;20012;-70
2021/10/22 20:48:08;;;;;;;7.38;2.53;;;20.40;57.10;;;;;;1048265;28;20798;-70
2021/10/22 20:57:15;;;;;;;7.00;1.73;;;20.30;57.20;;;;;;1048210;28;20024;-69
2021/10/22 20:57:45;;;;;;;7.40;2.17;;;20.30;57.10;;;;;;1048029;28;20058;-69
2021/10/22 20:58:16;;;;;;;9.15;1.98;;;20.30;57.00;;;;;;1047873;28;20685;-68
2021/10/22 20:58:47;;;;;;;6.70;1.20;;;20.30;57.10;;;;;;1047786;28;20112;-69
2021/10/22 20:59:19;;;;;;;6.07;1.38;;;20.20;57.10;;;;;;1047961;28;20486;-71
2021/10/22 20:59:50;;;;;;;7.53;1.80;;;20.20;57.20;;;;;;1048208;28;20013;-69
2021/10/22 21:00:21;;;;;;;6.68;1.58;;;20.20;57.20;;;;;;1048255;28;20020;-69
2021/10/22 21:00:52;;;;;;;7.60;1.35;;;20.20;57.20;;;;;;1048331;28;20020;-69
2021/10/22 21:01:22;;;;;;;6.78;1.25;;;20.20;57.30;;;;;;1047895;28;20019;-70
2021/10/22 21:01:53;;;;;;;7.95;1.45;;;20.20;57.30;;;;;;1047976;28;20040;-70
2021/10/22 21:02:24;;;;;;;6.05;1.70;;;20.20;57.40;;;;;;1047728;28;20017;-70
2021/10/22 21:02:54;;;;;;;5.22;1.23;;;20.10;57.40;;;;;;1047693;28;20494;-70
2021/10/22 21:03:26;;;;;;;5.60;1.20;;;20.10;57.40;;;;;;1047337;28;20012;-75
2021/10/22 21:03:57;;;;;;;8.75;1.60;;;20.20;57.30;;;;;;1047570;28;20013;-69
2021/10/22 21:04:27;;;;;;;14.52;2.03;;;20.20;58.10;;;;;;1047152;28;20554;-69
2021/10/22 21:04:58;;;;;;;7.68;1.38;;;20.20;58.30;;;;;;1048050;28;20099;-70
2021/10/22 21:05:31;;;;;;;14.90;2.63;;;20.20;58.20;;;;;;1047972;28;20017;-69
2021/10/22 21:06:02;;;;;;;10.73;2.20;;;20.30;59.10;;;;;;1047643;28;20083;-69
2021/10/22 21:06:33;;;;;;;9.93;2.20;;;20.30;58.30;;;;;;1048310;28;20020;-70
2021/10/22 21:07:06;;;;;;;9.25;2.10;;;20.30;58.20;;;;;;1051625;28;20020;-70
2021/10/22 21:07:41;;;;;;;6.68;1.63;;;20.20;58.30;;;;;;1051397;28;20162;-70
2021/10/22 21:08:12;;;;;;;14.02;2.38;;;20.30;58.20;;;;;;1051329;28;20027;-70
2021/10/22 21:08:44;;;;;;;14.73;2.17;;;20.30;57.70;;;;;;1051575;28;20024;-70
2021/10/22 21:09:15;;;;;;;18.45;2.63;;;20.20;57.40;;;;;;1051364;28;20024;-70
2021/10/22 21:09:46;;;;;;;11.43;1.48;;;20.20;57.20;;;;;;1051134;28;20637;-70
2021/10/22 21:10:18;;;;;;;22.92;2.28;;;20.20;57.40;;;;;;1051366;28;20023;-70
2021/10/22 21:10:49;;;;;;;18.50;2.70;;;20.20;57.60;;;;;;1051447;28;20025;-70
2021/10/22 21:11:20;;;;;;;11.98;2.55;;;20.20;57.50;;;;;;1051329;28;20112;-70
2021/10/22 21:11:51;;;;;;;17.25;2.70;;;20.20;57.30;;;;;;1051352;28;20027;-69
2021/10/22 21:12:22;;;;;;;11.43;1.50;;;20.20;57.30;;;;;;1051324;28;20020;-70
2021/10/22 21:12:54;;;;;;;9.35;2.08;;;20.20;57.20;;;;;;1051344;28;20013;-70
2021/10/22 21:13:25;;;;;;;10.23;1.85;;;20.20;57.30;;;;;;1051211;28;20471;-70
2021/10/22 21:13:57;;;;;;;12.98;1.55;;;20.20;57.30;;;;;;1051254;28;20108;-70
2021/10/22 21:14:27;;;;;;;11.80;2.15;;;20.10;57.30;;;;;;1051117;28;20128;-71
2021/10/22 21:14:58;;;;;;;7.75;1.90;;;20.20;57.50;;;;;;1051202;28;20429;-70
2021/10/22 21:15:28;;;;;;;11.63;3.05;;;20.20;57.20;;;;;;1051446;28;20044;-71
2021/10/22 21:15:59;;;;;;;6.85;1.83;;;20.10;58.30;;;;;;1051378;28;20471;-70
2021/10/22 21:16:30;;;;;;;8.07;1.70;;;20.10;57.70;;;;;;1051450;28;20507;-71
2021/10/22 21:17:01;;;;;;;27.35;2.20;;;20.10;57.20;;;;;;1051363;28;20028;-71
2021/10/22 21:17:32;;;;;;;9.55;1.90;;;20.10;57.20;;;;;;1051354;28;20024;-70
2021/10/22 21:18:03;;;;;;;12.88;2.75;;;20.20;57.10;;;;;;1050161;28;20111;-70
2021/10/22 21:18:35;;;;;;;12.20;1.70;;;20.20;57.20;;;;;;1048207;28;20020;-71
2021/10/22 21:19:06;;;;;;;12.55;2.45;;;20.20;57.30;;;;;;1048842;28;20433;-70
2021/10/22 21:19:37;;;;;;;14.07;2.53;;;20.10;57.30;;;;;;1052226;28;20467;-71
2021/10/22 21:20:08;;;;;;;17.45;2.80;;;20.10;57.50;;;;;;1048572;28;20020;-71
2021/10/22 21:20:38;;;;;;;19.45;3.05;;;20.10;57.60;;;;;;1048647;28;20090;-70
2021/10/22 21:21:10;;;;;;;18.85;4.35;;;20.10;57.60;;;;;;1048573;28;20475;-71
2021/10/22 21:21:40;;;;;;;18.40;3.53;;;20.10;57.60;;;;;;1048211;28;20032;-71
2021/10/22 21:22:11;;;;;;;22.50;3.67;;;20.10;57.60;;;;;;1043958;28;20394;-72
2021/10/22 21:22:42;;;;;;;23.13;2.28;;;20.10;57.70;;;;;;1044621;28;20009;-71
2021/10/22 21:23:12;;;;;;;15.13;3.33;;;20.10;57.70;;;;;;1045441;28;20093;-71
2021/10/22 21:23:44;;;;;;;26.45;4.45;;;20.00;57.70;;;;;;1045279;28;20490;-72
2021/10/22 21:24:16;;;;;;;14.63;2.58;;;20.10;57.90;;;;;;1050494;28;20077;-71
2021/10/22 21:24:47;;;;;;;17.90;2.47;;;20.10;58.00;;;;;;1049329;28;20024;-71
2021/10/22 21:25:18;;;;;;;29.38;3.88;;;20.00;57.90;;;;;;1043743;28;20021;-70
2021/10/22 21:25:49;;;;;;;15.43;2.25;;;20.00;57.90;;;;;;1043717;28;20028;-73
2021/10/22 21:26:22;;;;;;;8.48;2.22;;;20.00;57.90;;;;;;1043835;28;20092;-72
2021/10/22 21:26:53;;;;;;;14.10;2.30;;;20.00;57.70;;;;;;1045400;28;20072;-71
2021/10/22 21:27:26;;;;;;;13.40;2.20;;;20.00;57.80;;;;;;1052640;28;20106;-71
2021/10/22 21:27:56;;;;;;;15.73;3.45;;;20.00;57.80;;;;;;1052747;28;20505;-71
2021/10/22 21:28:27;;;;;;;15.48;3.03;;;20.00;57.90;;;;;;1049863;28;20016;-70
2021/10/22 21:28:58;;;;;;;26.63;3.95;;;20.00;57.70;;;;;;1048504;28;20082;-69
2021/10/22 21:29:30;;;;;;;13.25;2.88;;;20.00;57.80;;;;;;1048394;28;20024;-70
2021/10/22 21:30:02;;;;;;;7.57;2.00;;;20.00;57.80;;;;;;1048460;28;20024;-71
2021/10/22 21:30:34;;;;;;;11.40;1.63;;;19.90;57.80;;;;;;1048489;28;20052;-71
2021/10/22 21:31:06;;;;;;;10.32;2.53;;;20.00;57.80;;;;;;1049010;28;20020;-71
2021/10/22 21:31:37;;;;;;;10.88;2.78;;;20.00;57.90;;;;;;1051905;28;20016;-71
2021/10/22 21:32:09;;;;;;;9.43;2.30;;;19.90;58.00;;;;;;1048583;28;20024;-71
2021/10/22 21:32:40;;;;;;;12.45;2.03;;;19.90;57.90;;;;;;1048397;28;20024;-71
2021/10/22 21:33:11;;;;;;;11.75;2.00;;;19.90;58.30;;;;;;1046724;28;20029;-71
2021/10/22 21:33:41;;;;;;;8.65;1.80;;;19.80;58.50;;;;;;1045395;28;20491;-71
2021/10/22 21:34:12;;;;;;;12.80;2.38;;;19.80;58.60;;;;;;1046574;28;20427;-70
2021/10/22 21:34:43;;;;;;;16.98;3.38;;;19.80;58.50;;;;;;1043927;28;20041;-70
2021/10/22 21:35:13;;;;;;;14.00;2.35;;;19.70;58.50;;;;;;1048072;28;20021;-71
2021/10/22 21:35:44;;;;;;;18.92;4.65;;;19.70;58.60;;;;;;1043658;28;20108;-70
2021/10/22 21:36:15;;;;;;;13.75;2.47;;;19.70;58.90;;;;;;1043660;28;20021;-71
2021/10/22 21:36:46;;;;;;;11.00;2.00;;;19.70;58.80;;;;;;1043401;28;20045;-71
2021/10/22 21:37:17;;;;;;;19.60;3.10;;;19.60;58.70;;;;;;1041422;28;20097;-71
2021/10/22 21:37:47;;;;;;;18.58;3.70;;;19.70;58.80;;;;;;1048342;28;20024;-71
2021/10/22 21:38:18;;;;;;;21.17;3.42;;;19.70;58.80;;;;;;1048417;28;20505;-71
2021/10/22 21:38:49;;;;;;;14.35;2.45;;;19.70;58.90;;;;;;1048238;28;20100;-70
2021/10/22 21:39:19;;;;;;;20.95;3.65;;;19.70;58.90;;;;;;1048395;28;20024;-71
2021/10/22 21:39:50;;;;;;;15.10;2.65;;;19.70;59.00;;;;;;1048149;28;20028;-70
2021/10/22 21:40:21;;;;;;;24.95;4.60;;;19.60;58.60;;;;;;1048693;28;20079;-71
2021/10/22 21:40:52;;;;;;;16.98;2.67;;;19.70;58.70;;;;;;1048275;28;20025;-70
2021/10/22 21:41:22;;;;;;;17.50;3.72;;;19.70;58.60;;;;;;1048947;28;20064;-70
2021/10/22 21:41:53;;;;;;;17.90;4.13;;;19.70;58.60;;;;;;1048350;28;20024;-71
2021/10/22 21:42:24;;;;;;;21.85;2.85;;;19.70;58.40;;;;;;995986;28;20411;-71
2021/10/22 21:42:54;;;;;;;18.05;2.42;;;19.70;58.20;;;;;;1046422;28;20132;-70
2021/10/22 21:43:25;;;;;;;18.63;3.15;;;19.70;58.00;;;;;;1047701;28;20099;-70
2021/10/22 21:43:56;;;;;;;17.92;3.00;;;19.70;58.20;;;;;;1047654;28;20066;-70
2021/10/22 21:44:26;;;;;;;17.98;2.50;;;19.70;58.40;;;;;;1047716;28;20058;-70
2021/10/22 21:44:57;;;;;;;12.07;2.90;;;19.70;58.30;;;;;;1047573;28;20025;-71
2021/10/22 21:45:28;;;;;;;21.98;3.17;;;19.70;58.20;;;;;;1047753;28;20029;-70
2021/10/22 21:45:59;;;;;;;19.65;2.63;;;19.70;58.20;;;;;;1047877;28;20028;-70
2021/10/22 21:46:30;;;;;;;13.85;2.80;;;19.70;57.90;;;;;;1047771;28;20021;-70
2021/10/22 21:47:00;;;;;;;11.43;2.92;;;19.70;57.80;;;;;;1047652;28;20055;-71
2021/10/22 21:47:31;;;;;;;14.73;2.78;;;19.70;57.80;;;;;;1047795;28;20019;-71
2021/10/22 21:48:02;;;;;;;14.15;2.80;;;19.70;58.10;;;;;;1047911;28;20029;-71
2021/10/22 21:48:33;;;;;;;12.68;3.35;;;19.70;57.80;;;;;;1047894;28;20009;-71
2021/10/22 21:49:04;;;;;;;13.55;2.78;;;19.70;58.20;;;;;;1047651;28;20013;-71
2021/10/22 21:49:35;;;;;;;16.15;2.35;;;19.70;58.00;;;;;;1047191;28;20490;-70
2021/10/22 21:50:07;;;;;;;11.38;3.08;;;19.70;57.90;;;;;;1047850;28;20040;-70
2021/10/22 21:50:37;;;;;;;14.13;2.42;;;19.70;58.20;;;;;;1047950;28;20016;-73
2021/10/22 21:51:08;;;;;;;17.25;3.15;;;19.70;58.10;;;;;;1047613;28;20009;-70
2021/10/22 21:51:41;;;;;;;10.30;2.47;;;19.70;57.50;;;;;;1047878;28;20429;-70
2021/10/22 21:52:11;;;;;;;12.70;2.85;;;19.70;58.00;;;;;;1043599;28;20392;-70
2021/10/22 21:52:45;;;;;;;23.08;3.63;;;19.70;57.60;;;;;;1042528;28;20025;-72
2021/10/22 21:53:17;;;;;;;11.80;2.22;;;19.70;57.80;;;;;;1043160;28;20064;-71
2021/10/22 21:53:47;;;;;;;12.52;2.42;;;19.70;58.10;;;;;;1032890;28;20013;-71
2021/10/22 22:44:12;;;;;;;10.97;1.90;;;19.70;58.00;;;;;;104445825;27;135794;-70
2021/10/22 23:34:13;;;;;;;5.15;1.65;;;19.30;58.40;;;;;;104163404;28;20032;-70
